createdAt,value
2018-06-04T00:02:19.218Z,18.90
2018-06-04T00:04:47.611Z,18.90
2018-06-04T00:07:16.024Z,18.90
2018-06-04T00:09:44.419Z,18.90
2018-06-04T00:12:12.852Z,18.90
2018-06-04T00:14:41.314Z,18.90
2018-06-04T00:17:09.737Z,18.90
2018-06-04T00:19:38.167Z,18.90
2018-06-04T00:22:06.593Z,18.90
2018-06-04T00:24:35.008Z,18.90
2018-06-04T00:27:03.516Z,18.90
2018-06-04T00:29:31.907Z,18.80
2018-06-04T00:32:00.327Z,18.80
2018-06-04T00:34:28.811Z,18.80
2018-06-04T00:36:57.203Z,18.80
2018-06-04T00:39:25.962Z,18.70
2018-06-04T00:41:54.376Z,18.70
2018-06-04T00:44:23.547Z,18.60
2018-06-04T00:46:51.971Z,18.60
2018-06-04T00:49:20.387Z,18.60
2018-06-04T00:51:48.847Z,18.60
2018-06-04T00:54:17.347Z,18.60
2018-06-04T00:56:45.747Z,18.50
2018-06-04T00:59:14.170Z,18.50
2018-06-04T01:01:42.632Z,18.50
2018-06-04T01:04:11.016Z,18.50
2018-06-04T01:06:39.446Z,18.40
2018-06-04T01:09:08.316Z,18.40
2018-06-04T01:11:36.707Z,18.40
2018-06-04T01:14:05.132Z,18.40
2018-06-04T01:16:33.531Z,18.40
2018-06-04T01:19:01.940Z,18.30
2018-06-04T01:21:30.348Z,18.30
2018-06-04T01:23:58.762Z,18.30
2018-06-04T01:26:27.166Z,18.20
2018-06-04T01:28:55.592Z,18.20
2018-06-04T01:31:24.016Z,18.10
2018-06-04T01:33:52.440Z,18.20
2018-06-04T01:36:20.872Z,18.20
2018-06-04T01:38:49.746Z,18.20
2018-06-04T01:41:18.144Z,18.20
2018-06-04T01:43:46.600Z,18.20
2018-06-04T01:46:15.007Z,18.20
2018-06-04T01:48:43.422Z,18.10
2018-06-04T01:51:11.822Z,18.10
2018-06-04T01:53:40.235Z,18.10
2018-06-04T01:56:09.116Z,18.10
2018-06-04T01:58:37.575Z,18.10
2018-06-04T02:01:05.985Z,18.00
2018-06-04T02:03:34.423Z,18.00
2018-06-04T02:06:02.837Z,18.00
2018-06-04T02:08:31.231Z,18.00
2018-06-04T02:10:59.643Z,18.00
2018-06-04T02:13:28.069Z,18.00
2018-06-04T02:15:56.462Z,18.00
2018-06-04T02:18:24.882Z,18.00
2018-06-04T02:20:53.284Z,18.00
2018-06-04T02:23:21.729Z,18.00
2018-06-04T02:25:50.122Z,18.00
2018-06-04T02:28:18.519Z,18.00
2018-06-04T02:30:46.931Z,18.00
2018-06-04T02:33:15.363Z,18.00
2018-06-04T02:35:43.764Z,17.90
2018-06-04T02:38:12.179Z,17.90
2018-06-04T02:40:41.996Z,17.90
2018-06-04T02:43:10.404Z,17.90
2018-06-04T02:45:38.797Z,17.90
2018-06-04T02:48:07.218Z,17.90
2018-06-04T02:50:35.629Z,17.90
2018-06-04T02:53:04.028Z,17.90
2018-06-04T02:55:32.431Z,17.80
2018-06-04T02:58:00.875Z,17.80
2018-06-04T03:00:29.303Z,17.70
2018-06-04T03:02:57.699Z,17.70
2018-06-04T03:05:26.177Z,17.70
2018-06-04T03:07:54.584Z,17.70
2018-06-04T03:10:22.988Z,17.70
2018-06-04T03:12:51.408Z,17.70
2018-06-04T03:15:19.855Z,17.70
2018-06-04T03:17:48.256Z,17.60
2018-06-04T03:20:16.720Z,17.60
2018-06-04T03:22:45.141Z,17.60
2018-06-04T03:25:13.556Z,17.50
2018-06-04T03:27:41.961Z,17.50
2018-06-04T03:30:10.356Z,17.60
2018-06-04T03:32:38.772Z,17.60
2018-06-04T03:35:07.179Z,17.60
2018-06-04T03:37:35.600Z,17.60
2018-06-04T03:40:04.039Z,17.60
2018-06-04T03:42:32.440Z,17.60
2018-06-04T03:45:00.852Z,17.60
2018-06-04T03:47:29.271Z,17.60
2018-06-04T03:49:57.659Z,17.60
2018-06-04T03:52:26.091Z,17.60
2018-06-04T03:57:22.608Z,17.60
2018-06-04T03:59:51.022Z,17.70
2018-06-04T04:02:19.437Z,17.70
2018-06-04T04:04:47.828Z,17.70
2018-06-04T04:07:16.241Z,17.70
2018-06-04T04:09:44.723Z,17.70
2018-06-04T04:12:13.123Z,17.70
2018-06-04T04:14:42.467Z,17.80
2018-06-04T04:17:10.858Z,17.80
2018-06-04T04:19:39.351Z,17.80
2018-06-04T04:22:07.765Z,17.80
2018-06-04T04:24:36.208Z,17.80
2018-06-04T04:27:04.631Z,17.80
2018-06-04T04:29:33.791Z,17.90
2018-06-04T04:32:02.196Z,17.90
2018-06-04T04:34:31.137Z,18.00
2018-06-04T04:36:59.539Z,18.00
2018-06-04T04:39:27.941Z,18.10
2018-06-04T04:41:56.384Z,18.10
2018-06-04T04:44:24.792Z,18.10
2018-06-04T04:46:53.208Z,18.20
2018-06-04T04:51:49.723Z,18.20
2018-06-04T04:54:18.165Z,18.30
2018-06-04T04:56:46.698Z,18.30
2018-06-04T04:59:15.089Z,18.30
2018-06-04T05:01:47.362Z,18.40
2018-06-04T05:04:16.339Z,18.50
2018-06-04T05:06:44.776Z,18.50
2018-06-04T05:09:13.427Z,18.50
2018-06-04T05:11:41.819Z,18.60
2018-06-04T05:14:10.248Z,18.60
2018-06-04T05:16:38.659Z,18.60
2018-06-04T05:19:07.067Z,18.60
2018-06-04T05:21:35.471Z,18.60
2018-06-04T05:24:03.919Z,18.60
2018-06-04T05:26:32.348Z,18.70
2018-06-04T05:29:02.112Z,18.70
2018-06-04T05:31:30.599Z,18.70
2018-06-04T05:33:59.182Z,18.80
2018-06-04T05:36:29.193Z,18.90
2018-06-04T05:38:57.596Z,18.90
2018-06-04T05:41:25.987Z,19.00
2018-06-04T05:43:54.403Z,19.00
2018-06-04T05:46:22.847Z,19.10
2018-06-04T05:48:51.260Z,19.10
2018-06-04T05:51:19.720Z,19.20
2018-06-04T05:53:48.751Z,19.30
2018-06-04T05:56:17.350Z,19.40
2018-06-04T05:58:45.747Z,19.50
2018-06-04T06:01:14.189Z,19.70
2018-06-04T06:03:42.639Z,19.90
2018-06-04T06:06:12.945Z,20.00
2018-06-04T06:08:41.374Z,20.10
2018-06-04T06:11:09.792Z,20.20
2018-06-04T06:13:38.202Z,20.40
2018-06-04T06:16:06.663Z,20.90
2018-06-04T06:18:35.110Z,22.50
2018-06-04T06:21:03.920Z,24.80
2018-06-04T06:23:32.347Z,26.40
2018-06-04T06:26:00.782Z,27.10
2018-06-04T06:28:29.213Z,28.10
2018-06-04T06:30:57.635Z,29.40
2018-06-04T06:33:26.054Z,30.60
2018-06-04T06:35:54.482Z,31.50
2018-06-04T06:38:22.975Z,32.10
2018-06-04T06:40:51.402Z,32.70
2018-06-04T06:43:20.258Z,33.30
2018-06-04T06:45:48.732Z,33.90
2018-06-04T06:48:17.150Z,34.30
2018-06-04T06:50:45.634Z,34.50
2018-06-04T06:53:14.033Z,34.80
2018-06-04T06:55:42.952Z,35.00
2018-06-04T06:58:11.401Z,35.40
2018-06-04T07:00:39.858Z,35.80
2018-06-04T07:03:08.329Z,36.10
2018-06-04T07:05:36.747Z,36.30
2018-06-04T07:08:05.167Z,36.50
2018-06-04T07:10:34.184Z,37.00
2018-06-04T07:13:02.588Z,37.10
2018-06-04T07:15:30.996Z,37.30
2018-06-04T07:17:59.399Z,37.50
2018-06-04T07:20:27.812Z,37.70
2018-06-04T07:25:24.341Z,36.60
2018-06-04T07:27:52.934Z,35.70
2018-06-04T07:30:21.369Z,34.80
2018-06-04T07:32:49.783Z,33.90
2018-06-04T07:35:18.194Z,33.60
2018-06-04T07:37:46.627Z,33.30
2018-06-04T07:40:15.052Z,32.70
2018-06-04T07:42:43.516Z,33.20
2018-06-04T07:45:11.927Z,33.80
2018-06-04T07:47:40.359Z,34.50
2018-06-04T07:50:10.262Z,35.10
2018-06-04T07:52:38.707Z,35.70
2018-06-04T07:55:07.123Z,36.10
2018-06-04T07:57:35.551Z,36.60
2018-06-04T08:00:04.020Z,37.00
2018-06-04T08:02:32.418Z,37.30
2018-06-04T08:05:01.463Z,37.30
2018-06-04T08:07:29.888Z,37.50
2018-06-04T08:09:58.301Z,37.90
2018-06-04T08:12:26.724Z,38.30
2018-06-04T08:14:55.188Z,38.50
2018-06-04T08:17:23.617Z,38.90
2018-06-04T08:19:52.091Z,39.10
2018-06-04T08:22:20.526Z,39.40
2018-06-04T08:24:48.956Z,39.70
2018-06-04T08:27:17.370Z,39.90
2018-06-04T08:29:45.798Z,40.00
2018-06-04T08:32:14.239Z,40.00
2018-06-04T08:34:42.691Z,40.00
2018-06-04T08:37:11.114Z,39.80
2018-06-04T08:39:39.534Z,39.80
2018-06-04T08:42:07.980Z,39.80
2018-06-04T08:44:36.412Z,39.90
2018-06-04T08:47:04.825Z,39.90
2018-06-04T08:49:33.254Z,39.80
2018-06-04T08:52:01.715Z,39.50
2018-06-04T08:54:30.143Z,39.40
2018-06-04T08:56:58.563Z,39.10
2018-06-04T08:59:26.973Z,38.70
2018-06-04T09:01:55.379Z,38.00
2018-06-04T09:04:23.787Z,37.30
2018-06-04T09:06:52.203Z,36.70
2018-06-04T09:09:20.635Z,36.00
2018-06-04T09:11:49.067Z,35.20
2018-06-04T09:14:17.489Z,34.80
2018-06-04T09:16:45.936Z,34.50
2018-06-04T09:19:14.355Z,34.10
2018-06-04T09:21:42.835Z,33.50
2018-06-04T09:24:11.267Z,32.90
2018-06-04T09:26:39.684Z,32.30
2018-06-04T09:29:08.106Z,31.80
2018-06-04T09:31:36.515Z,31.60
2018-06-04T09:34:04.939Z,31.50
2018-06-04T09:36:33.360Z,31.40
2018-06-04T09:39:02.591Z,31.30
2018-06-04T09:41:31.000Z,31.20
2018-06-04T09:43:59.419Z,31.10
2018-06-04T09:46:27.854Z,31.10
2018-06-04T09:48:56.279Z,31.10
2018-06-04T09:51:24.728Z,30.70
2018-06-04T09:53:53.188Z,30.30
2018-06-04T09:56:21.626Z,30.20
2018-06-04T09:58:50.068Z,30.20
2018-06-04T10:01:19.200Z,30.30
2018-06-04T10:03:47.639Z,30.40
2018-06-04T10:06:16.047Z,30.20
2018-06-04T10:08:44.484Z,30.00
2018-06-04T10:11:12.879Z,29.70
2018-06-04T10:13:41.304Z,29.70
2018-06-04T10:16:09.731Z,29.80
2018-06-04T10:18:38.165Z,29.80
2018-06-04T10:21:06.573Z,29.80
2018-06-04T10:23:35.014Z,29.70
2018-06-04T10:26:03.420Z,29.40
2018-06-04T10:28:31.847Z,29.30
2018-06-04T10:31:00.258Z,29.20
2018-06-04T10:33:28.722Z,29.30
2018-06-04T10:35:57.127Z,29.20
2018-06-04T10:38:25.607Z,29.00
2018-06-04T10:40:54.023Z,29.00
2018-06-04T10:43:22.451Z,29.20
2018-06-04T10:45:50.848Z,29.20
2018-06-04T10:48:19.282Z,29.20
2018-06-04T10:50:47.687Z,29.10
2018-06-04T10:53:16.111Z,28.90
2018-06-04T10:55:44.550Z,28.70
2018-06-04T10:58:12.994Z,28.50
2018-06-04T11:00:41.412Z,28.50
2018-06-04T11:03:09.838Z,28.40
2018-06-04T11:05:38.326Z,28.50
2018-06-04T11:08:06.782Z,28.30
2018-06-04T11:10:35.200Z,28.20
2018-06-04T11:13:03.612Z,28.20
2018-06-04T11:15:32.077Z,27.90
2018-06-04T11:18:00.503Z,27.80
2018-06-04T11:20:29.396Z,27.80
2018-06-04T11:22:57.799Z,27.70
2018-06-04T11:25:26.199Z,27.60
2018-06-04T11:27:54.616Z,27.60
2018-06-04T11:30:23.050Z,27.70
2018-06-04T11:32:51.500Z,27.70
2018-06-04T11:35:19.925Z,27.70
2018-06-04T11:37:48.363Z,27.80
2018-06-04T11:40:16.769Z,27.80
2018-06-04T11:42:45.214Z,27.80
2018-06-04T11:45:13.640Z,27.70
2018-06-04T11:47:42.032Z,27.40
2018-06-04T11:50:10.447Z,27.30
2018-06-04T11:52:38.881Z,27.30
2018-06-04T11:55:07.280Z,27.30
2018-06-04T11:57:35.735Z,27.30
2018-06-04T12:00:04.168Z,27.00
2018-06-04T12:02:32.575Z,26.90
2018-06-04T12:05:00.991Z,26.90
2018-06-04T12:07:29.404Z,27.00
2018-06-04T12:09:57.813Z,27.00
2018-06-04T12:12:26.222Z,27.00
2018-06-04T12:14:54.658Z,26.90
2018-06-04T12:17:23.086Z,26.80
2018-06-04T12:19:51.483Z,26.70
2018-06-04T12:22:19.861Z,26.70
2018-06-04T12:24:48.359Z,26.70
2018-06-04T12:27:16.768Z,26.70
2018-06-04T12:29:45.171Z,26.50
2018-06-04T12:32:13.975Z,26.50
2018-06-04T12:34:42.439Z,26.40
2018-06-04T12:37:10.846Z,26.50
2018-06-04T12:39:39.291Z,26.50
2018-06-04T12:42:08.382Z,26.60
2018-06-04T12:44:36.817Z,26.50
2018-06-04T12:47:05.227Z,26.50
2018-06-04T12:49:33.655Z,26.50
2018-06-04T12:52:02.070Z,26.50
2018-06-04T12:54:30.474Z,26.50
2018-06-04T12:56:58.891Z,26.50
2018-06-04T12:59:27.298Z,26.50
2018-06-04T13:01:55.702Z,26.50
2018-06-04T13:04:24.121Z,26.40
2018-06-04T13:06:52.527Z,26.30
2018-06-04T13:09:20.930Z,26.30
2018-06-04T13:11:49.335Z,26.30
2018-06-04T13:14:17.750Z,26.30
2018-06-04T13:16:46.198Z,26.30
2018-06-04T13:19:14.616Z,26.30
2018-06-04T13:21:43.034Z,26.30
2018-06-04T13:24:11.439Z,26.50
2018-06-04T13:26:39.861Z,26.50
2018-06-04T13:29:08.267Z,26.50
2018-06-04T13:31:36.687Z,26.40
2018-06-04T13:34:05.082Z,26.30
2018-06-04T13:36:33.482Z,26.10
2018-06-04T13:39:01.887Z,26.10
2018-06-04T13:41:30.339Z,25.90
2018-06-04T13:43:58.746Z,25.90
2018-06-04T13:46:27.156Z,25.90
2018-06-04T13:48:55.562Z,25.90
2018-06-04T13:51:23.999Z,26.00
2018-06-04T13:53:52.431Z,26.10
2018-06-04T13:56:20.860Z,26.20
2018-06-04T13:58:49.275Z,26.40
2018-06-04T14:01:17.707Z,26.50
2018-06-04T14:03:46.111Z,26.40
2018-06-04T14:06:14.522Z,26.30
2018-06-04T14:08:42.928Z,26.20
2018-06-04T14:11:11.374Z,26.00
2018-06-04T14:13:39.858Z,25.90
2018-06-04T14:16:08.563Z,25.90
2018-06-04T14:18:36.992Z,25.80
2018-06-04T14:21:05.554Z,25.80
2018-06-04T14:23:33.971Z,25.70
2018-06-04T14:26:02.435Z,25.70
2018-06-04T14:28:30.854Z,25.70
2018-06-04T14:30:59.307Z,25.60
2018-06-04T14:33:27.713Z,25.70
2018-06-04T14:35:56.159Z,25.80
2018-06-04T14:38:24.582Z,25.80
2018-06-04T14:40:53.002Z,26.00
2018-06-04T14:43:21.430Z,26.00
2018-06-04T14:45:49.846Z,25.90
2018-06-04T14:48:18.264Z,25.90
2018-06-04T14:50:46.961Z,25.70
2018-06-04T14:53:15.360Z,25.60
2018-06-04T14:55:43.798Z,25.60
2018-06-04T14:58:12.219Z,25.60
2018-06-04T15:00:40.639Z,25.60
2018-06-04T15:03:09.049Z,25.50
2018-06-04T15:05:37.434Z,25.50
2018-06-04T15:08:06.023Z,25.50
2018-06-04T15:10:34.422Z,25.40
2018-06-04T15:13:02.837Z,25.50
2018-06-04T15:15:31.238Z,25.50
2018-06-04T15:17:59.683Z,25.50
2018-06-04T15:20:28.117Z,25.50
2018-06-04T15:22:56.535Z,25.40
2018-06-04T15:25:25.024Z,25.30
2018-06-04T15:27:53.546Z,25.40
2018-06-04T15:30:21.957Z,25.40
2018-06-04T15:32:51.291Z,25.40
2018-06-04T15:35:19.711Z,25.40
2018-06-04T15:37:48.166Z,25.40
2018-06-04T15:40:16.548Z,25.40
2018-06-04T15:42:44.984Z,25.40
2018-06-04T15:45:13.401Z,25.40
2018-06-04T15:47:41.830Z,25.40
2018-06-04T15:50:10.228Z,25.40
2018-06-04T15:52:38.694Z,25.40
2018-06-04T15:55:07.123Z,25.30
2018-06-04T15:57:35.523Z,25.10
2018-06-04T16:00:03.940Z,25.00
2018-06-04T16:02:32.375Z,24.90
2018-06-04T16:05:00.782Z,24.80
2018-06-04T16:07:29.199Z,24.80
2018-06-04T16:09:57.611Z,24.70
2018-06-04T16:12:26.024Z,24.60
2018-06-04T16:14:54.466Z,24.60
2018-06-04T16:17:22.846Z,24.50
2018-06-04T16:19:51.269Z,24.50
2018-06-04T16:22:19.664Z,24.50
2018-06-04T16:24:48.091Z,24.50
2018-06-04T16:27:16.511Z,24.60
2018-06-04T16:29:44.927Z,24.60
2018-06-04T16:32:13.351Z,24.60
2018-06-04T16:34:41.785Z,24.60
2018-06-04T16:37:10.202Z,24.60
2018-06-04T16:39:38.619Z,24.60
2018-06-04T16:42:07.050Z,24.60
2018-06-04T16:44:35.457Z,24.60
2018-06-04T16:47:03.871Z,24.50
2018-06-04T16:49:32.296Z,24.50
2018-06-04T16:52:00.755Z,24.50
2018-06-04T16:54:29.179Z,24.50
2018-06-04T16:56:57.590Z,24.50
2018-06-04T16:59:26.004Z,24.50
2018-06-04T17:01:54.443Z,24.40
2018-06-04T17:04:23.084Z,24.40
2018-06-04T17:06:53.134Z,24.40
2018-06-04T17:09:21.578Z,24.30
2018-06-04T17:11:49.995Z,24.30
2018-06-04T17:14:18.391Z,24.30
2018-06-04T17:16:46.811Z,24.30
2018-06-04T17:19:15.234Z,24.30
2018-06-04T17:21:43.607Z,24.20
2018-06-04T17:24:12.434Z,24.10
2018-06-04T17:26:40.839Z,24.10
2018-06-04T17:29:09.230Z,24.00
2018-06-04T17:31:37.644Z,24.00
2018-06-04T17:34:06.047Z,24.00
2018-06-04T17:36:34.440Z,24.00
2018-06-04T17:39:02.900Z,23.90
2018-06-04T17:41:31.315Z,23.90
2018-06-04T17:43:59.715Z,23.90
2018-06-04T17:46:28.154Z,23.90
2018-06-04T17:48:56.583Z,23.80
2018-06-04T17:51:24.978Z,23.80
2018-06-04T17:53:53.423Z,23.70
2018-06-04T17:56:21.834Z,23.70
2018-06-04T17:58:50.241Z,23.60
2018-06-04T18:01:18.908Z,23.60
2018-06-04T18:03:47.322Z,23.50
2018-06-04T18:06:15.727Z,23.40
2018-06-04T18:08:44.130Z,23.30
2018-06-04T18:11:12.546Z,23.30
2018-06-04T18:13:40.963Z,23.20
2018-06-04T18:16:09.412Z,23.10
2018-06-04T18:18:37.817Z,23.10
2018-06-04T18:21:06.237Z,23.10
2018-06-04T18:23:34.649Z,23.10
2018-06-04T18:26:03.058Z,23.10
2018-06-04T18:28:31.467Z,23.00
2018-06-04T18:30:59.860Z,22.90
2018-06-04T18:33:28.289Z,22.90
2018-06-04T18:35:56.691Z,22.80
2018-06-04T18:38:25.115Z,22.80
2018-06-04T18:40:53.519Z,22.70
2018-06-04T18:43:21.934Z,22.60
2018-06-04T18:45:51.013Z,22.50
2018-06-04T18:48:19.466Z,22.50
2018-06-04T18:50:47.867Z,22.40
2018-06-04T18:53:16.302Z,22.40
2018-06-04T18:55:44.707Z,22.30
2018-06-04T19:00:41.227Z,22.20
2018-06-04T19:03:09.671Z,22.10
2018-06-04T19:05:38.059Z,22.10
2018-06-04T19:08:06.509Z,22.00
2018-06-04T19:10:34.931Z,21.90
2018-06-04T19:13:03.390Z,21.80
2018-06-04T19:15:31.815Z,21.70
2018-06-04T19:18:00.226Z,21.70
2018-06-04T19:20:28.635Z,21.70
2018-06-04T19:22:57.047Z,21.60
2018-06-04T19:25:25.449Z,21.60
2018-06-04T19:27:53.855Z,21.50
2018-06-04T19:30:22.310Z,21.40
2018-06-04T19:32:53.404Z,21.40
2018-06-04T19:35:21.831Z,21.40
2018-06-04T19:37:50.230Z,21.40
2018-06-04T19:40:18.938Z,21.30
2018-06-04T19:42:47.339Z,21.30
2018-06-04T19:45:16.353Z,21.20
2018-06-04T19:47:44.892Z,21.20
2018-06-04T19:50:13.333Z,21.10
2018-06-04T19:52:41.746Z,21.00
2018-06-04T19:55:10.675Z,20.90
2018-06-04T19:57:39.106Z,20.90
2018-06-04T20:00:07.522Z,20.90
2018-06-04T20:02:35.974Z,20.80
2018-06-04T20:05:04.406Z,20.70
2018-06-04T20:07:32.810Z,20.70
2018-06-04T20:10:01.214Z,20.60
2018-06-04T20:14:57.739Z,20.50
2018-06-04T20:17:26.178Z,20.50
2018-06-04T20:19:54.582Z,20.50
2018-06-04T20:22:22.975Z,20.40
2018-06-04T20:24:51.390Z,20.40
2018-06-04T20:27:19.813Z,20.30
2018-06-04T20:29:48.209Z,20.20
2018-06-04T20:32:16.631Z,20.20
2018-06-04T20:34:45.042Z,20.20
2018-06-04T20:37:13.460Z,20.20
2018-06-04T20:39:41.908Z,20.20
2018-06-04T20:42:10.339Z,20.20
2018-06-04T20:44:38.762Z,20.20
2018-06-04T20:47:07.182Z,20.20
2018-06-04T20:49:35.607Z,20.20
2018-06-04T20:52:04.015Z,20.10
2018-06-04T20:54:32.449Z,20.10
2018-06-04T20:57:00.867Z,20.10
2018-06-04T20:59:29.272Z,20.10
2018-06-04T21:01:58.126Z,20.00
2018-06-04T21:04:26.809Z,20.00
2018-06-04T21:09:23.421Z,19.90
2018-06-04T21:11:51.861Z,19.90
2018-06-04T21:14:20.285Z,19.90
2018-06-04T21:16:48.735Z,19.80
2018-06-04T21:19:17.183Z,19.80
2018-06-04T21:21:45.582Z,19.80
2018-06-04T21:24:14.046Z,19.80
2018-06-04T21:26:42.463Z,19.80
2018-06-04T21:29:10.904Z,19.80
2018-06-04T21:31:39.313Z,19.70
2018-06-04T21:34:08.030Z,19.80
2018-06-04T21:36:36.479Z,19.80
2018-06-04T21:39:06.634Z,19.80
2018-06-04T21:41:35.051Z,19.80
2018-06-04T21:44:03.472Z,19.80
2018-06-04T21:46:31.904Z,19.70
2018-06-04T21:49:00.385Z,19.70
2018-06-04T21:51:28.812Z,19.70
2018-06-04T21:53:57.266Z,19.70
2018-06-04T21:56:25.706Z,19.70
2018-06-04T21:58:54.128Z,19.70
2018-06-04T22:01:22.527Z,19.70
2018-06-04T22:03:50.993Z,19.70
2018-06-04T22:06:19.424Z,19.70
2018-06-04T22:08:47.868Z,19.70
2018-06-04T22:11:16.284Z,19.70
2018-06-04T22:13:44.749Z,19.70
2018-06-04T22:16:13.158Z,19.70
2018-06-04T22:18:41.584Z,19.70
2018-06-04T22:21:09.995Z,19.70
2018-06-04T22:23:38.399Z,19.70
2018-06-04T22:26:06.807Z,19.70
2018-06-04T22:28:35.255Z,19.70
2018-06-04T22:31:03.667Z,19.70
2018-06-04T22:33:32.103Z,19.70
2018-06-04T22:36:00.498Z,19.70
2018-06-04T22:38:28.926Z,19.70
2018-06-04T22:40:57.366Z,19.70
2018-06-04T22:43:25.783Z,19.70
2018-06-04T22:45:54.189Z,19.70
2018-06-04T22:48:22.670Z,19.70
2018-06-04T22:50:51.127Z,19.70
2018-06-04T22:53:19.541Z,19.70
2018-06-04T22:55:47.951Z,19.70
2018-06-04T22:58:16.357Z,19.70
2018-06-04T23:00:47.892Z,19.70
2018-06-04T23:03:16.314Z,19.70
2018-06-04T23:05:44.733Z,19.70
2018-06-04T23:08:13.143Z,19.60
2018-06-04T23:10:41.572Z,19.60
2018-06-04T23:13:09.971Z,19.50
2018-06-04T23:15:38.418Z,19.60
2018-06-04T23:20:34.968Z,19.50
2018-06-04T23:23:04.026Z,19.50
2018-06-04T23:25:33.307Z,19.60
2018-06-04T23:28:01.719Z,19.50
2018-06-04T23:30:30.176Z,19.50
2018-06-04T23:32:58.606Z,19.60
2018-06-04T23:35:27.120Z,19.50
2018-06-04T23:37:55.555Z,19.50
2018-06-04T23:40:23.984Z,19.50
2018-06-04T23:42:52.388Z,19.50
2018-06-04T23:45:20.794Z,19.50
2018-06-04T23:47:49.204Z,19.50
2018-06-04T23:50:17.643Z,19.50
2018-06-04T23:52:46.115Z,19.50
2018-06-04T23:55:14.515Z,19.50
2018-06-04T23:57:42.926Z,19.50
